Crouch, ID

7:37 AM MDT on August 23, 2014 (GMT -0600)
Archie Creek | Change Station
CLOSE
Current Station
Personal Weather Station
Location: Lowman, ID
Elevation: 4334 ft
Nearby Weather Stations

Elev 4334 ft 44.06 °N, 115.51 °W | Updated 35 seconds ago

Clear
Clear
39.2 °F
Feels Like 39 °F
N
0.0
Wind Variable Wind from SSW
Gusts 0.2 mph

Today
High -- | Low -- °F
--% Chance of Precip.
Yesterday
High -- | Low -- °F
Precip. -- in
6:55 AM 8:33 PM
Waning Crescent, 4% visible
Pressure 29.97 in
Visibility 10.0 miles
Clouds Clear
Windchill 39 °F
Dew Point 36 °F
Humidity 90%
Rainfall 0.00 in
Snow Depth 1 in , 0 in
UV 0 out of 12
Pollen 7.30 out of 12
Ozone Good
PM2.5 Good
Flu Activity Not available.
METAR KBOI 231253Z 00000KT 10SM CLR 12/08 A3003 RMK AO2 SLP148 T01170078

More Conditions Fewer Conditions

Pressure 29.97 in
Visibility 10.0 miles
Clouds Clear
Windchill 39 °F
Dew Point 36 °F
Humidity 90%
Rainfall 0.00 in
Snow Depth 1 in , 0 in
UV 0 out of 12
Pollen 7.30 out of 12
Ozone Good
PM2.5 Good
Flu Activity Not available.
METAR KBOI 231253Z 00000KT 10SM CLR 12/08 A3003 RMK AO2 SLP148 T01170078

More Conditions Fewer Conditions

10-Day Weather Forecast

Almanac

Astronomy

Aug. 23, 2014 Rise Set
Actual Time 6:55 AM MDT 8:33 PM MDT
Civil Twilight 6:24 AM MDT 9:04 PM MDT
Nautical Twilight 5:47 AM MDT 9:41 PM MDT
Astronomical Twilight 5:07 AM MDT 10:20 PM MDT
Moon 5:14 AM MDT 7:21 PM MDT
Length of Visible Light 14h 39m
Length of Day
13h 38m
Tomorrow will be 2m 50s shorter.
Waning Crescent, 4% of the Moon is Illuminated
Today
Waning Crescent
Aug 25
New
Sep 2
First Quarter
Sep 8
Full
Sep 15
Last Quarter

Today's Extremes

State Highs State Lows

Community

WunderPhotos

Upload Photos

1,746,452 photos uploaded!

WunderBlogs® & News

By Dr. Jeff Masters
Director of Meteorology, Weather Underground
By Kari Strenfel
Meteorologist, Weather Underground
By Christopher C. Burt
Weather Historian, Weather Underground
August 23, 2014
August 23, 2014
August 23, 2014

Nearby

Air Quality

  Air Quality AQ Index Pollutant
Yesterday Good
OZONE
Yesterday Good
PM10
Current Good
OZONE
Current Good
PM2.5
Saturday Good
OZONE
Sunday Good
OZONE
Monday Good
OZONE
Tuesday Good
OZONE

Snow Depth

Station Depth Elevation
Jackson Peak 1 in 7070 ft
Cozy Cove 0 in 5380 ft
Banner Summit 0 in 7040 ft
Atlanta Summit 0 in 7580 ft
Bogus Basin 0 in 6340 ft

Earthquake Activity

City Distance Mag. Time & Date
No recent earthquake activity has been reported nearby.
Minimum magnitude displayed is 2.5.

Coastal Water Temperatures

Place Temperature
No Stations Reporting

Nearby Weather Stations